Time;durP1;ratioP1;P1;durP2;ratioP2;P2;SDS_P1;SDS_P2;PMS_P1;PMS_P2;Temp;Humidity;BMP_temperature;BMP_pressure;BME280_temperature;BME280_humidity;BME280_pressure;Samples;Min_cycle;Max_cycle;Signal;HPM_P1;HPM_P2
2024/02/25 00:01:38;;;;;;;2.22;1.00;;;;;;;;;;5037225;28;20154;-67
2024/02/25 00:04:05;;;;;;;2.47;0.98;;;;;;;;;;5029369;28;20060;-67
2024/02/25 00:06:32;;;;;;;2.67;1.05;;;;;;;;;;5025811;28;20094;-69
2024/02/25 00:09:04;;;;;;;3.55;1.10;;;;;;;;;;5030647;28;20057;-70
2024/02/25 00:11:32;;;;;;;4.38;1.10;;;;;;;;;;5021345;28;20056;-66
2024/02/25 00:13:59;;;;;;;;;;;;;;;;;;5030485;28;20057;-65
2024/02/25 00:16:26;;;;;;;1.85;0.95;;;;;;;;;;5015387;28;19939;-69
2024/02/25 00:18:53;;;;;;;2.67;0.80;;;;;;;;;;5031292;28;20135;-67
2024/02/25 00:21:20;;;;;;;2.00;0.85;;;;;;;;;;5026350;28;20071;-68
2024/02/25 00:23:47;;;;;;;1.85;0.80;;;;;;;;;;5027919;28;20052;-68
2024/02/25 00:26:13;;;;;;;5.78;1.00;;;;;;;;;;5034243;28;20064;-68
2024/02/25 00:28:42;;;;;;;1.58;0.90;;;;;;;;;;5051838;28;20063;-68
2024/02/25 00:31:09;;;;;;;2.15;0.98;;;;;;;;;;5028207;28;20048;-69
2024/02/25 00:33:35;;;;;;;2.03;0.80;;;;;;;;;;5029132;28;20494;-67
2024/02/25 00:36:02;;;;;;;1.73;0.90;;;;;;;;;;5052274;28;20126;-67
2024/02/25 00:38:29;;;;;;;1.30;0.68;;;;;;;;;;5030816;28;20052;-65
2024/02/25 00:40:55;;;;;;;4.00;0.98;;;;;;;;;;5026055;28;20063;-69
2024/02/25 00:43:25;;;;;;;1.55;0.80;;;;;;;;;;5034776;28;20063;-68
2024/02/25 00:45:54;;;;;;;3.72;1.63;;;;;;;;;;5029007;28;20061;-68
2024/02/25 00:48:21;;;;;;;2.05;0.90;;;;;;;;;;5055567;28;20138;-67
2024/02/25 00:50:48;;;;;;;1.65;0.90;;;;;;;;;;5027406;28;20549;-66
2024/02/25 00:53:16;;;;;;;2.40;1.02;;;;;;;;;;5035812;28;20108;-67
2024/02/25 00:55:43;;;;;;;2.53;0.77;;;;;;;;;;5025305;28;20450;-65
2024/02/25 00:58:10;;;;;;;5.18;0.90;;;;;;;;;;5034873;28;20145;-68
2024/02/25 01:00:36;;;;;;;3.15;0.90;;;;;;;;;;5030114;28;20075;-68
2024/02/25 01:03:05;;;;;;;2.22;0.88;;;;;;;;;;5031199;28;20080;-67
2024/02/25 01:05:32;;;;;;;3.17;1.00;;;;;;;;;;5025658;28;20044;-67
2024/02/25 01:08:01;;;;;;;1.23;0.82;;;;;;;;;;5049207;28;20130;-70
2024/02/25 01:10:28;;;;;;;2.75;0.98;;;;;;;;;;5028771;28;20063;-66
2024/02/25 01:12:55;;;;;;;0.70;0.60;;;;;;;;;;5049107;28;20048;-66
2024/02/25 01:15:22;;;;;;;2.45;1.30;;;;;;;;;;5032303;28;20060;-69
2024/02/25 01:17:49;;;;;;;5.30;1.50;;;;;;;;;;5028857;28;21395;-65
2024/02/25 01:20:17;;;;;;;3.38;2.03;;;;;;;;;;5030613;28;20060;-67
2024/02/25 01:22:44;;;;;;;1.75;1.00;;;;;;;;;;5049714;28;20083;-67
2024/02/25 01:25:11;;;;;;;4.63;1.10;;;;;;;;;;5032972;28;20059;-65
2024/02/25 01:27:39;;;;;;;3.72;1.00;;;;;;;;;;5025882;28;20142;-66
2024/02/25 01:30:10;;;;;;;3.17;1.00;;;;;;;;;;5035384;28;20075;-68
2024/02/25 01:32:37;;;;;;;3.22;1.13;;;;;;;;;;5050870;28;20148;-68
2024/02/25 01:35:04;;;;;;;3.72;1.00;;;;;;;;;;5033305;28;20055;-66
2024/02/25 01:37:32;;;;;;;1.90;0.90;;;;;;;;;;5044155;28;20056;-68
2024/02/25 01:39:59;;;;;;;5.20;1.13;;;;;;;;;;5029003;28;20056;-66
2024/02/25 01:42:26;;;;;;;2.15;0.80;;;;;;;;;;5031169;28;20145;-67
2024/02/25 01:44:57;;;;;;;3.17;1.10;;;;;;;;;;5029959;28;20040;-66
2024/02/25 01:47:24;;;;;;;3.10;1.10;;;;;;;;;;5045681;28;20068;-67
2024/02/25 01:49:51;;;;;;;2.03;0.73;;;;;;;;;;5025572;28;20056;-65
2024/02/25 01:52:19;;;;;;;2.80;0.90;;;;;;;;;;5032518;28;20372;-69
2024/02/25 01:54:49;;;;;;;2.50;0.83;;;;;;;;;;5030531;28;20056;-68
2024/02/25 01:57:16;;;;;;;2.20;1.02;;;;;;;;;;5052575;28;20080;-68
2024/02/25 01:59:44;;;;;;;2.95;0.85;;;;;;;;;;5021827;28;20427;-67
2024/02/25 02:02:13;;;;;;;2.25;0.85;;;;;;;;;;5051087;28;20056;-68
2024/02/25 02:04:40;;;;;;;1.23;0.60;;;;;;;;;;5032949;28;20061;-66
2024/02/25 02:07:07;;;;;;;1.02;0.70;;;;;;;;;;5032575;28;20067;-68
2024/02/25 02:09:34;;;;;;;1.17;0.68;;;;;;;;;;5036393;28;20056;-69
2024/02/25 02:12:03;;;;;;;2.00;0.77;;;;;;;;;;5027913;28;20078;-66
2024/02/25 02:14:30;;;;;;;1.15;0.70;;;;;;;;;;5029353;28;20060;-68
2024/02/25 02:16:57;;;;;;;5.15;1.30;;;;;;;;;;5012367;28;20090;-67
2024/02/25 02:19:24;;;;;;;4.90;1.35;;;;;;;;;;5030655;28;20945;-66
2024/02/25 02:21:54;;;;;;;3.78;1.90;;;;;;;;;;5009623;28;20534;-66
2024/02/25 02:24:21;;;;;;;4.90;2.15;;;;;;;;;;5011186;28;20049;-68
2024/02/25 02:26:48;;;;;;;4.10;2.00;;;;;;;;;;5030588;28;20111;-64
2024/02/25 02:29:15;;;;;;;5.53;1.85;;;;;;;;;;5011869;28;20080;-68
2024/02/25 02:31:42;;;;;;;5.85;1.70;;;;;;;;;;5013509;28;20083;-65
2024/02/25 02:34:09;;;;;;;4.32;1.88;;;;;;;;;;5021137;28;20078;-68
2024/02/25 02:36:36;;;;;;;2.88;1.60;;;;;;;;;;5019930;28;20062;-70
2024/02/25 02:39:04;;;;;;;3.13;1.63;;;;;;;;;;5020625;28;20059;-69
2024/02/25 02:41:32;;;;;;;4.85;2.35;;;;;;;;;;5022226;28;20060;-66
2024/02/25 02:43:59;;;;;;;4.50;1.92;;;;;;;;;;5030276;28;20056;-65
2024/02/25 02:46:25;;;;;;;3.22;1.60;;;;;;;;;;5030720;28;20060;-65
2024/02/25 02:48:52;;;;;;;4.72;2.30;;;;;;;;;;5056856;28;20114;-66
2024/02/25 02:51:19;;;;;;;4.53;2.17;;;;;;;;;;5027353;28;20056;-67
2024/02/25 02:53:45;;;;;;;5.60;2.67;;;;;;;;;;5022583;28;21752;-67
2024/02/25 03:03:52;;;;;;;3.10;1.50;;;;;;;;;;5003968;28;20072;-71
2024/02/25 03:06:19;;;;;;;2.42;1.52;;;;;;;;;;4993647;28;20065;-68
2024/02/25 03:08:47;;;;;;;1.42;0.90;;;;;;;;;;4992661;28;20151;-72
2024/02/25 03:11:14;;;;;;;4.82;1.85;;;;;;;;;;5000179;28;20049;-71
2024/02/25 03:13:41;;;;;;;5.13;2.15;;;;;;;;;;4997004;28;20056;-70
2024/02/25 03:16:08;;;;;;;4.00;1.83;;;;;;;;;;5048690;28;21456;-71
2024/02/25 03:18:36;;;;;;;4.38;2.05;;;;;;;;;;5036952;28;20064;-69
2024/02/25 03:21:04;;;;;;;4.55;2.08;;;;;;;;;;5036185;28;20053;-71
2024/02/25 03:23:31;;;;;;;3.47;2.00;;;;;;;;;;5031547;28;20049;-75
2024/02/25 03:25:58;;;;;;;3.70;1.70;;;;;;;;;;5029307;28;20147;-70
2024/02/25 03:28:25;;;;;;;3.40;1.25;;;;;;;;;;5035937;28;20057;-72
2024/02/25 03:30:52;;;;;;;4.28;1.95;;;;;;;;;;5038081;28;20612;-70
2024/02/25 03:33:19;;;;;;;3.92;2.15;;;;;;;;;;5036317;28;20126;-68
2024/02/25 03:35:46;;;;;;;3.25;1.77;;;;;;;;;;5028116;28;20048;-72
2024/02/25 03:38:14;;;;;;;5.65;2.60;;;;;;;;;;5037683;28;20044;-69
2024/02/25 03:40:40;;;;;;;5.07;2.33;;;;;;;;;;5036964;28;20052;-70
2024/02/25 03:43:07;;;;;;;5.70;2.88;;;;;;;;;;5038056;28;20364;-72
2024/02/25 03:45:34;;;;;;;5.97;2.42;;;;;;;;;;5031697;28;20064;-74
2024/02/25 03:48:01;;;;;;;6.50;3.13;;;;;;;;;;5034701;28;20145;-73
2024/02/25 03:50:27;;;;;;;5.35;2.78;;;;;;;;;;5041011;28;20115;-70
2024/02/25 03:52:54;;;;;;;8.30;2.50;;;;;;;;;;5043457;28;20065;-73
2024/02/25 03:55:24;;;;;;;5.03;2.30;;;;;;;;;;5035434;28;20059;-73
2024/02/25 03:57:51;;;;;;;4.78;2.33;;;;;;;;;;5038237;28;20174;-75
2024/02/25 04:00:19;;;;;;;4.40;2.25;;;;;;;;;;5040434;28;20147;-74
2024/02/25 04:02:46;;;;;;;4.53;2.28;;;;;;;;;;5039450;28;20048;-70
2024/02/25 04:05:14;;;;;;;5.22;2.40;;;;;;;;;;5034526;28;20061;-73
2024/02/25 04:07:42;;;;;;;4.78;2.47;;;;;;;;;;5038270;28;20053;-72
2024/02/25 04:10:10;;;;;;;5.05;2.72;;;;;;;;;;5033528;28;20052;-71
2024/02/25 04:12:39;;;;;;;7.97;3.40;;;;;;;;;;5040690;28;20427;-72
2024/02/25 04:15:08;;;;;;;9.27;3.75;;;;;;;;;;5035141;28;20080;-72
2024/02/25 04:17:35;;;;;;;6.43;3.10;;;;;;;;;;5039106;28;20061;-70
2024/02/25 04:20:05;;;;;;;7.75;3.47;;;;;;;;;;5033697;28;20114;-70
2024/02/25 04:22:32;;;;;;;6.28;2.97;;;;;;;;;;5039443;28;20064;-72
2024/02/25 04:24:59;;;;;;;3.03;1.77;;;;;;;;;;5035432;28;21097;-73
2024/02/25 04:27:26;;;;;;;4.80;2.28;;;;;;;;;;5043682;28;20100;-68
2024/02/25 04:29:54;;;;;;;4.43;2.15;;;;;;;;;;5032165;28;20168;-71
2024/02/25 04:32:24;;;;;;;4.78;2.13;;;;;;;;;;5038798;28;20063;-71
2024/02/25 04:34:50;;;;;;;7.22;3.03;;;;;;;;;;5036844;28;20859;-68
2024/02/25 04:37:17;;;;;;;6.10;3.03;;;;;;;;;;5040501;28;20056;-68
2024/02/25 04:39:46;;;;;;;7.20;3.00;;;;;;;;;;5036236;28;20099;-72
2024/02/25 04:42:13;;;;;;;7.05;3.05;;;;;;;;;;5041724;28;20998;-71
2024/02/25 04:44:40;;;;;;;4.95;2.55;;;;;;;;;;5066401;28;20478;-72
2024/02/25 04:47:08;;;;;;;6.20;2.92;;;;;;;;;;5043619;28;20063;-71
2024/02/25 04:49:35;;;;;;;5.00;2.30;;;;;;;;;;5040315;28;20059;-73
2024/02/25 04:52:02;;;;;;;4.70;2.28;;;;;;;;;;5033468;28;20067;-72
2024/02/25 04:54:29;;;;;;;5.53;2.00;;;;;;;;;;5029256;28;20064;-72
2024/02/25 04:56:56;;;;;;;3.50;1.65;;;;;;;;;;5038030;28;20048;-67
2024/02/25 04:59:23;;;;;;;3.60;1.83;;;;;;;;;;5038248;28;20596;-68
2024/02/25 05:01:49;;;;;;;2.00;1.15;;;;;;;;;;5032431;28;20079;-69
2024/02/25 05:04:18;;;;;;;4.53;1.95;;;;;;;;;;5033848;28;20076;-73
2024/02/25 05:06:45;;;;;;;5.45;2.40;;;;;;;;;;5038846;28;20065;-72
2024/02/25 05:09:12;;;;;;;8.23;3.50;;;;;;;;;;5038695;28;20067;-67
2024/02/25 05:11:39;;;;;;;6.85;2.70;;;;;;;;;;5044116;28;20044;-73
2024/02/25 05:14:06;;;;;;;7.07;3.30;;;;;;;;;;5028394;28;21353;-69
2024/02/25 05:16:32;;;;;;;7.32;2.58;;;;;;;;;;5037498;28;20130;-70
2024/02/25 05:18:59;;;;;;;5.03;2.50;;;;;;;;;;5037722;28;20446;-73
2024/02/25 05:21:29;;;;;;;3.65;1.75;;;;;;;;;;5039681;28;20068;-74
2024/02/25 05:23:57;;;;;;;5.43;2.42;;;;;;;;;;5029132;28;20150;-69
2024/02/25 05:26:24;;;;;;;7.47;3.17;;;;;;;;;;5038307;28;20203;-70
2024/02/25 05:28:51;;;;;;;4.28;2.30;;;;;;;;;;5039455;28;20064;-72
2024/02/25 05:31:17;;;;;;;5.25;2.63;;;;;;;;;;5038622;28;20059;-69
2024/02/25 05:33:44;;;;;;;7.15;3.03;;;;;;;;;;5031756;28;20048;-67
2024/02/25 05:36:11;;;;;;;5.60;2.85;;;;;;;;;;5032867;28;20171;-72
2024/02/25 05:38:40;;;;;;;6.15;2.80;;;;;;;;;;5038157;28;20049;-73
2024/02/25 05:41:10;;;;;;;6.40;3.05;;;;;;;;;;5040706;28;20049;-72
2024/02/25 05:43:37;;;;;;;6.55;2.90;;;;;;;;;;5033718;28;20062;-73
2024/02/25 05:46:04;;;;;;;5.43;2.80;;;;;;;;;;5031367;28;20190;-75
2024/02/25 05:48:30;;;;;;;5.47;2.80;;;;;;;;;;5042935;28;20057;-75
2024/02/25 05:50:57;;;;;;;8.35;3.05;;;;;;;;;;5039067;28;20056;-74
2024/02/25 05:53:24;;;;;;;6.63;1.90;;;;;;;;;;5050074;28;20175;-73
2024/02/25 05:55:52;;;;;;;4.75;2.22;;;;;;;;;;5030811;28;20608;-69
2024/02/25 05:58:19;;;;;;;4.07;2.38;;;;;;;;;;5040318;28;20095;-69
2024/02/25 06:00:46;;;;;;;7.35;2.95;;;;;;;;;;5037627;28;20052;-68
2024/02/25 06:03:15;;;;;;;11.85;3.70;;;;;;;;;;5037527;28;20087;-70
2024/02/25 06:05:44;;;;;;;5.70;2.88;;;;;;;;;;5030147;28;20067;-68
2024/02/25 06:08:11;;;;;;;5.85;2.78;;;;;;;;;;5040379;28;20049;-70
2024/02/25 06:10:38;;;;;;;6.07;2.97;;;;;;;;;;5036268;28;20106;-71
2024/02/25 06:13:06;;;;;;;7.78;3.58;;;;;;;;;;5038247;28;20064;-70
2024/02/25 06:15:33;;;;;;;5.60;2.58;;;;;;;;;;5031379;28;20063;-67
2024/02/25 06:17:59;;;;;;;5.25;2.13;;;;;;;;;;5035157;28;20327;-71
2024/02/25 06:20:26;;;;;;;3.42;1.60;;;;;;;;;;5037941;28;20045;-71
2024/02/25 06:22:53;;;;;;;2.25;1.30;;;;;;;;;;5039086;28;20056;-70
2024/02/25 06:25:20;;;;;;;2.00;1.20;;;;;;;;;;5033065;28;20139;-72
2024/02/25 06:27:54;;;;;;;2.38;1.40;;;;;;;;;;5029533;28;20048;-70
2024/02/25 06:30:22;;;;;;;3.85;1.67;;;;;;;;;;5036795;28;20052;-73
2024/02/25 06:32:49;;;;;;;1.95;1.10;;;;;;;;;;5038939;28;20057;-74
2024/02/25 06:35:16;;;;;;;3.08;1.40;;;;;;;;;;5034077;28;20075;-73
2024/02/25 06:37:43;;;;;;;1.85;1.20;;;;;;;;;;5035694;28;20053;-69
2024/02/25 06:40:10;;;;;;;3.65;1.70;;;;;;;;;;5034561;28;20059;-70
2024/02/25 06:42:38;;;;;;;1.98;1.23;;;;;;;;;;5038923;28;20057;-70
2024/02/25 06:45:05;;;;;;;2.97;1.58;;;;;;;;;;5031640;28;20068;-71
2024/02/25 06:47:33;;;;;;;2.28;1.23;;;;;;;;;;5036703;28;20088;-69
2024/02/25 06:50:00;;;;;;;3.03;1.52;;;;;;;;;;5030360;28;20067;-68
2024/02/25 06:52:27;;;;;;;3.67;1.90;;;;;;;;;;5041016;28;20064;-71
2024/02/25 06:54:54;;;;;;;4.72;2.08;;;;;;;;;;5034157;28;20057;-74
2024/02/25 06:57:20;;;;;;;3.53;1.42;;;;;;;;;;5036760;28;20064;-72
2024/02/25 06:59:48;;;;;;;4.90;2.47;;;;;;;;;;5036253;28;20067;-74
2024/02/25 07:02:15;;;;;;;1.88;1.25;;;;;;;;;;5036714;28;20060;-72
2024/02/25 07:04:43;;;;;;;3.00;1.70;;;;;;;;;;5031152;28;20060;-74
2024/02/25 07:07:09;;;;;;;2.88;1.63;;;;;;;;;;5039102;28;20056;-73
2024/02/25 07:09:39;;;;;;;4.93;1.90;;;;;;;;;;5040220;28;20061;-72
2024/02/25 07:12:07;;;;;;;4.43;1.80;;;;;;;;;;5038847;28;21116;-70
2024/02/25 07:14:33;;;;;;;3.35;1.77;;;;;;;;;;5033621;28;20056;-73
2024/02/25 07:17:00;;;;;;;3.25;1.90;;;;;;;;;;5037775;28;20075;-69
2024/02/25 07:19:27;;;;;;;4.55;2.00;;;;;;;;;;5037868;28;20052;-70
2024/02/25 07:21:56;;;;;;;3.72;1.85;;;;;;;;;;5034176;28;20061;-69
2024/02/25 07:24:23;;;;;;;3.95;1.75;;;;;;;;;;5036842;28;20068;-72
2024/02/25 07:26:51;;;;;;;6.07;2.72;;;;;;;;;;5044682;28;20106;-71
2024/02/25 07:29:19;;;;;;;7.00;2.17;;;;;;;;;;5045093;28;20057;-71
2024/02/25 07:31:46;;;;;;;5.40;2.60;;;;;;;;;;5037928;28;20060;-72
2024/02/25 07:34:13;;;;;;;4.82;2.35;;;;;;;;;;5037323;28;20057;-71
2024/02/25 07:36:41;;;;;;;9.38;4.88;;;;;;;;;;5043094;28;20053;-70
2024/02/25 07:39:10;;;;;;;8.97;4.80;;;;;;;;;;5041767;28;20530;-71
2024/02/25 07:41:36;;;;;;;;;;;;;;;;;;5047166;28;20139;-71
2024/02/25 07:44:04;;;;;;;7.53;3.35;;;;;;;;;;5030840;28;20041;-71
2024/02/25 07:46:30;;;;;;;7.20;3.30;;;;;;;;;;5041660;28;20049;-70
2024/02/25 07:48:58;;;;;;;5.97;2.92;;;;;;;;;;5045700;28;20052;-70
2024/02/25 07:51:25;;;;;;;7.57;3.13;;;;;;;;;;5041407;28;20064;-71
2024/02/25 07:53:52;;;;;;;5.93;3.10;;;;;;;;;;5032724;28;20079;-70
2024/02/25 07:56:23;;;;;;;6.43;2.42;;;;;;;;;;5040764;28;20056;-73
2024/02/25 07:58:50;;;;;;;4.88;2.63;;;;;;;;;;5041581;28;20059;-72
2024/02/25 08:01:17;;;;;;;5.20;2.42;;;;;;;;;;5042978;28;20109;-70
2024/02/25 08:03:44;;;;;;;5.78;2.75;;;;;;;;;;5031306;28;20060;-70
2024/02/25 08:06:11;;;;;;;5.90;2.78;;;;;;;;;;5077070;28;20052;-71
2024/02/25 08:08:38;;;;;;;6.05;2.95;;;;;;;;;;5043036;28;20049;-71
2024/02/25 08:11:05;;;;;;;7.80;3.80;;;;;;;;;;5038907;28;20049;-71
2024/02/25 08:13:33;;;;;;;6.00;2.92;;;;;;;;;;5037144;28;20080;-75
2024/02/25 08:16:00;;;;;;;6.93;2.90;;;;;;;;;;5037323;28;20309;-72
2024/02/25 08:18:28;;;;;;;5.88;2.78;;;;;;;;;;5038975;28;20053;-71
2024/02/25 08:20:54;;;;;;;8.70;2.55;;;;;;;;;;5040372;28;20088;-69
2024/02/25 08:23:21;;;;;;;8.13;2.53;;;;;;;;;;5040088;28;20151;-71
2024/02/25 08:25:48;;;;;;;4.75;2.15;;;;;;;;;;5034436;28;20060;-74
2024/02/25 08:28:16;;;;;;;5.88;2.40;;;;;;;;;;5039283;28;20049;-72
2024/02/25 08:30:44;;;;;;;5.25;2.45;;;;;;;;;;5038400;28;20064;-70
2024/02/25 08:33:11;;;;;;;3.70;2.20;;;;;;;;;;5038656;28;20076;-71
2024/02/25 08:35:41;;;;;;;4.40;2.03;;;;;;;;;;5033545;28;20052;-68
2024/02/25 08:38:08;;;;;;;4.75;2.08;;;;;;;;;;5035289;28;20136;-71
2024/02/25 08:40:35;;;;;;;3.38;1.83;;;;;;;;;;5044314;28;20053;-71
2024/02/25 08:43:04;;;;;;;4.25;2.17;;;;;;;;;;5039991;28;20045;-70
2024/02/25 08:45:31;;;;;;;;;;;;;;;;;;5023668;28;20057;-71
2024/02/25 08:48:02;;;;;;;4.63;1.70;;;;;;;;;;5034167;28;19936;-72
2024/02/25 08:50:30;;;;;;;4.03;1.73;;;;;;;;;;5042272;28;20053;-72
2024/02/25 08:52:58;;;;;;;4.28;2.20;;;;;;;;;;5039179;28;20501;-67
2024/02/25 08:55:25;;;;;;;4.77;1.97;;;;;;;;;;5007510;28;20049;-74
2024/02/25 08:57:52;;;;;;;4.78;2.05;;;;;;;;;;5033155;28;20306;-72
2024/02/25 09:00:20;;;;;;;3.40;2.00;;;;;;;;;;5037905;28;20053;-71
2024/02/25 09:02:47;;;;;;;4.78;2.13;;;;;;;;;;5039640;28;20080;-70
2024/02/25 09:05:17;;;;;;;7.25;2.83;;;;;;;;;;5045813;28;20154;-73
2024/02/25 09:07:50;;;;;;;6.75;2.58;;;;;;;;;;5041288;28;21320;-71
2024/02/25 09:10:19;;;;;;;4.60;2.17;;;;;;;;;;5038594;28;20056;-71
2024/02/25 09:12:47;;;;;;;4.50;2.28;;;;;;;;;;5038669;28;20056;-73
2024/02/25 09:15:15;;;;;;;5.18;2.50;;;;;;;;;;5038975;28;20161;-74
2024/02/25 09:17:47;;;;;;;5.68;2.20;;;;;;;;;;5038247;28;20972;-68
2024/02/25 09:20:16;;;;;;;4.97;2.40;;;;;;;;;;5073912;28;20056;-68
2024/02/25 09:22:43;;;;;;;6.82;3.40;;;;;;;;;;5039796;28;20500;-73
2024/02/25 09:25:14;;;;;;;6.10;3.03;;;;;;;;;;5023665;28;20067;-72
2024/02/25 09:27:42;;;;;;;6.63;2.63;;;;;;;;;;5041162;28;20141;-73
2024/02/25 09:30:16;;;;;;;5.07;2.30;;;;;;;;;;5036378;28;20049;-69
2024/02/25 09:32:46;;;;;;;3.78;1.88;;;;;;;;;;5042460;28;20057;-72
2024/02/25 09:35:16;;;;;;;4.07;1.73;;;;;;;;;;5022047;28;20056;-75
2024/02/25 09:37:43;;;;;;;4.47;1.75;;;;;;;;;;5039088;28;20052;-71
2024/02/25 09:40:16;;;;;;;3.65;1.98;;;;;;;;;;5040133;28;20049;-71
2024/02/25 09:42:45;;;;;;;10.98;2.60;;;;;;;;;;5039546;28;20084;-68
2024/02/25 09:45:22;;;;;;;5.90;2.33;;;;;;;;;;5034156;28;20059;-73
2024/02/25 09:47:51;;;;;;;7.90;2.42;;;;;;;;;;5036670;28;20360;-70
2024/02/25 09:50:21;;;;;;;4.40;1.98;;;;;;;;;;5039178;28;20060;-73
2024/02/25 09:52:49;;;;;;;4.63;2.10;;;;;;;;;;5038824;28;20094;-72
2024/02/25 09:55:16;;;;;;;3.30;1.50;;;;;;;;;;5033690;28;20056;-70
2024/02/25 09:57:50;;;;;;;3.60;1.77;;;;;;;;;;5035454;28;20055;-70
2024/02/25 10:00:18;;;;;;;4.32;1.90;;;;;;;;;;5057640;28;20613;-71
2024/02/25 10:02:45;;;;;;;5.00;1.90;;;;;;;;;;5038295;28;21125;-75
2024/02/25 10:05:15;;;;;;;4.55;2.35;;;;;;;;;;5026495;28;20158;-70
2024/02/25 10:07:44;;;;;;;6.95;3.17;;;;;;;;;;5040448;28;20083;-74
2024/02/25 10:10:14;;;;;;;8.27;3.08;;;;;;;;;;5040982;28;20063;-71
2024/02/25 10:12:41;;;;;;;4.00;2.05;;;;;;;;;;5041304;28;20155;-69
2024/02/25 10:15:10;;;;;;;4.68;2.10;;;;;;;;;;5034307;28;20049;-74
2024/02/25 10:17:38;;;;;;;4.90;2.25;;;;;;;;;;5039708;28;20151;-71
2024/02/25 10:20:13;;;;;;;4.35;2.40;;;;;;;;;;5037155;28;21185;-68
2024/02/25 10:22:39;;;;;;;7.00;2.47;;;;;;;;;;5036926;28;20465;-71
2024/02/25 10:25:09;;;;;;;6.38;2.47;;;;;;;;;;5033614;28;20084;-68
2024/02/25 10:27:36;;;;;;;4.60;2.08;;;;;;;;;;5040568;28;20122;-73
2024/02/25 10:30:08;;;;;;;7.68;2.80;;;;;;;;;;5035569;28;20057;-69
2024/02/25 10:32:38;;;;;;;10.40;2.92;;;;;;;;;;5038693;28;20052;-73
2024/02/25 10:35:06;;;;;;;7.25;2.40;;;;;;;;;;5026712;28;20057;-70
2024/02/25 10:37:33;;;;;;;5.65;2.45;;;;;;;;;;5039384;28;20033;-72
2024/02/25 10:40:05;;;;;;;5.38;2.78;;;;;;;;;;5035676;28;20068;-70
2024/02/25 10:42:41;;;;;;;7.13;3.05;;;;;;;;;;5040503;28;20056;-73
2024/02/25 10:45:12;;;;;;;6.93;2.38;;;;;;;;;;5031556;28;20343;-72
2024/02/25 10:47:40;;;;;;;;;;;;;;;;;;5038332;28;20045;-73
2024/02/25 10:50:09;;;;;;;5.97;2.78;;;;;;;;;;5039701;28;19929;-73
2024/02/25 10:52:39;;;;;;;7.78;2.95;;;;;;;;;;5039776;28;20052;-75
2024/02/25 10:55:15;;;;;;;9.13;3.95;;;;;;;;;;5034771;28;20052;-71
2024/02/25 10:57:44;;;;;;;10.77;3.50;;;;;;;;;;5039773;28;20088;-73
2024/02/25 11:00:14;;;;;;;9.75;3.67;;;;;;;;;;5038072;28;20053;-76
2024/02/25 11:02:44;;;;;;;6.78;3.45;;;;;;;;;;5037727;28;20058;-73
2024/02/25 11:05:16;;;;;;;6.25;3.17;;;;;;;;;;5016104;28;20052;-72
2024/02/25 11:07:45;;;;;;;9.23;3.42;;;;;;;;;;5038050;28;20125;-70
2024/02/25 11:10:20;;;;;;;8.23;3.55;;;;;;;;;;5051196;28;20096;-68
2024/02/25 11:12:50;;;;;;;9.95;3.90;;;;;;;;;;5038655;28;20076;-70
2024/02/25 11:15:21;;;;;;;7.95;3.78;;;;;;;;;;5036497;28;20117;-71
2024/02/25 11:17:50;;;;;;;12.25;3.63;;;;;;;;;;5038988;28;20092;-70
2024/02/25 11:20:22;;;;;;;7.38;3.70;;;;;;;;;;5038107;28;20157;-69
2024/02/25 11:22:50;;;;;;;9.63;3.83;;;;;;;;;;5040529;28;20052;-71
2024/02/25 11:25:37;;;;;;;9.52;4.55;;;;;;;;;;5037305;28;20444;-71
2024/02/25 11:28:09;;;;;;;11.20;4.43;;;;;;;;;;5036634;28;20071;-75
2024/02/25 11:30:37;;;;;;;9.57;3.72;;;;;;;;;;5036598;28;20045;-72
2024/02/25 11:33:38;;;;;;;7.13;3.00;;;;;;;;;;5038763;28;20056;-70
2024/02/25 11:36:12;;;;;;;8.77;3.20;;;;;;;;;;5030616;28;20075;-69
2024/02/25 11:38:41;;;;;;;6.47;2.90;;;;;;;;;;5039408;28;20052;-73
2024/02/25 11:41:10;;;;;;;6.20;2.35;;;;;;;;;;5042276;28;20065;-70
2024/02/25 11:43:43;;;;;;;6.50;2.38;;;;;;;;;;5027862;28;20056;-73
2024/02/25 11:46:10;;;;;;;6.68;2.85;;;;;;;;;;5049776;28;20153;-70
2024/02/25 11:48:37;;;;;;;6.72;2.53;;;;;;;;;;5038053;28;20060;-72
2024/02/25 11:51:06;;;;;;;4.65;2.25;;;;;;;;;;5039355;28;20049;-72
2024/02/25 11:53:33;;;;;;;7.22;2.83;;;;;;;;;;5039066;28;20102;-73
2024/02/25 11:56:00;;;;;;;6.18;2.45;;;;;;;;;;5026949;28;20053;-70
2024/02/25 11:58:28;;;;;;;4.97;2.63;;;;;;;;;;5038545;28;20087;-70
2024/02/25 12:00:56;;;;;;;12.23;4.38;;;;;;;;;;5039093;28;20060;-70
2024/02/25 12:03:24;;;;;;;10.73;4.55;;;;;;;;;;5037901;28;20055;-68
2024/02/25 12:05:51;;;;;;;10.93;5.53;;;;;;;;;;5030593;28;20062;-73
2024/02/25 12:08:19;;;;;;;9.75;4.10;;;;;;;;;;5041445;28;20152;-72
2024/02/25 12:10:50;;;;;;;6.57;2.72;;;;;;;;;;5042833;28;20044;-73
2024/02/25 12:13:17;;;;;;;9.80;3.65;;;;;;;;;;5042195;28;20246;-75
2024/02/25 12:15:44;;;;;;;8.13;3.90;;;;;;;;;;5033313;28;20084;-69
2024/02/25 12:18:13;;;;;;;7.65;3.55;;;;;;;;;;5039977;28;20213;-71
2024/02/25 12:20:41;;;;;;;6.93;3.58;;;;;;;;;;5040756;28;20056;-71
2024/02/25 12:23:09;;;;;;;7.63;3.53;;;;;;;;;;5042699;28;20064;-68
2024/02/25 12:25:45;;;;;;;;;;;;;;;;;;5012224;28;20053;-72
2024/02/25 12:28:19;;;;;;;7.80;3.10;;;;;;;;;;5043103;28;19929;-72
2024/02/25 12:30:46;;;;;;;9.18;3.55;;;;;;;;;;5044335;28;20057;-70
2024/02/25 12:33:15;;;;;;;6.28;3.10;;;;;;;;;;5041642;28;20072;-73
2024/02/25 12:35:42;;;;;;;6.72;2.58;;;;;;;;;;5039890;28;20085;-74
2024/02/25 12:38:10;;;;;;;6.63;3.08;;;;;;;;;;5040294;28;20119;-71
2024/02/25 12:40:44;;;;;;;11.32;3.70;;;;;;;;;;5041738;28;20049;-72
2024/02/25 12:43:11;;;;;;;9.50;3.03;;;;;;;;;;5041010;28;20064;-70
2024/02/25 12:45:39;;;;;;;5.88;2.50;;;;;;;;;;5028064;28;20219;-70
2024/02/25 12:48:06;;;;;;;8.00;2.88;;;;;;;;;;5039084;28;20099;-71
2024/02/25 12:50:34;;;;;;;6.47;3.03;;;;;;;;;;5043482;28;20090;-72
2024/02/25 12:53:02;;;;;;;5.45;2.10;;;;;;;;;;5042551;28;20057;-72
2024/02/25 12:55:30;;;;;;;4.25;2.17;;;;;;;;;;5036974;28;20061;-72
2024/02/25 12:57:57;;;;;;;16.20;4.38;;;;;;;;;;5036773;28;20040;-72
2024/02/25 13:00:24;;;;;;;9.05;2.53;;;;;;;;;;5045482;28;20077;-70
2024/02/25 13:02:51;;;;;;;10.57;3.35;;;;;;;;;;5045173;28;20124;-70
2024/02/25 13:05:18;;;;;;;9.05;3.28;;;;;;;;;;5044137;28;20048;-71
2024/02/25 13:07:46;;;;;;;5.50;2.38;;;;;;;;;;5037035;28;20068;-73
2024/02/25 13:10:13;;;;;;;4.60;2.10;;;;;;;;;;5041293;28;20064;-73
2024/02/25 13:12:43;;;;;;;7.35;2.85;;;;;;;;;;5042020;28;20079;-71
2024/02/25 13:15:11;;;;;;;9.32;2.80;;;;;;;;;;5025767;28;20059;-80
2024/02/25 13:17:39;;;;;;;6.07;2.60;;;;;;;;;;5045856;28;20049;-72
2024/02/25 13:20:12;;;;;;;7.15;2.38;;;;;;;;;;5036457;28;20061;-70
2024/02/25 13:22:39;;;;;;;6.15;2.10;;;;;;;;;;5040526;28;20052;-71
2024/02/25 13:25:11;;;;;;;3.88;2.00;;;;;;;;;;4961908;28;20075;-70
2024/02/25 13:27:44;;;;;;;3.33;1.52;;;;;;;;;;4997761;28;20191;-71
2024/02/25 13:30:16;;;;;;;8.25;1.95;;;;;;;;;;5052016;28;20146;-75
2024/02/25 13:32:43;;;;;;;2.55;0.98;;;;;;;;;;5037945;28;20082;-67
2024/02/25 13:35:13;;;;;;;3.10;1.10;;;;;;;;;;5025251;28;20059;-69
2024/02/25 13:37:42;;;;;;;4.88;1.85;;;;;;;;;;5053631;28;20052;-71
2024/02/25 13:40:12;;;;;;;;;;;;;;;;;;5035236;28;20052;-71
2024/02/25 13:42:38;;;;;;;2.08;1.00;;;;;;;;;;5043561;28;20027;-70
2024/02/25 13:45:07;;;;;;;2.60;0.90;;;;;;;;;;5034950;28;20082;-72
2024/02/25 13:47:37;;;;;;;0.93;0.55;;;;;;;;;;5045683;28;20075;-69
2024/02/25 13:50:08;;;;;;;0.80;0.60;;;;;;;;;;5034371;28;20057;-69
2024/02/25 13:52:37;;;;;;;0.93;0.70;;;;;;;;;;5039642;28;20179;-70
2024/02/25 13:55:05;;;;;;;2.30;0.88;;;;;;;;;;5026637;28;20082;-68
2024/02/25 13:57:44;;;;;;;1.23;0.63;;;;;;;;;;5046667;28;20068;-73
2024/02/25 14:00:13;;;;;;;1.05;0.70;;;;;;;;;;5038736;28;20061;-71
2024/02/25 14:02:41;;;;;;;1.15;0.70;;;;;;;;;;5071328;28;20056;-72
2024/02/25 14:05:08;;;;;;;3.53;0.53;;;;;;;;;;5024627;28;20138;-73
2024/02/25 14:07:36;;;;;;;5.30;1.80;;;;;;;;;;5045797;28;20060;-72
2024/02/25 14:10:13;;;;;;;15.60;6.18;;;;;;;;;;5032811;28;20151;-73
2024/02/25 14:12:41;;;;;;;5.75;2.55;;;;;;;;;;5035159;28;20049;-73
2024/02/25 14:15:08;;;;;;;;;;;;;;;;;;5034472;28;20084;-70
2024/02/25 14:17:35;;;;;;;3.65;0.90;;;;;;;;;;5041188;28;19928;-70
2024/02/25 14:20:11;;;;;;;0.73;0.65;;;;;;;;;;5032770;28;20057;-74
2024/02/25 14:22:38;;;;;;;3.60;0.93;;;;;;;;;;5040585;28;20139;-72
2024/02/25 14:25:10;;;;;;;1.45;0.93;;;;;;;;;;4987576;28;20052;-70
2024/02/25 14:27:47;;;;;;;1.65;1.00;;;;;;;;;;5051311;28;20060;-81
2024/02/25 14:30:30;;;;;;;2.88;1.17;;;;;;;;;;5041535;28;20056;-75
2024/02/25 14:32:57;;;;;;;3.25;0.93;;;;;;;;;;5039349;28;20075;-71
2024/02/25 14:35:26;;;;;;;2.15;1.10;;;;;;;;;;5025924;28;20147;-71
2024/02/25 14:37:53;;;;;;;2.83;1.10;;;;;;;;;;5035771;28;20128;-72
2024/02/25 14:40:24;;;;;;;1.23;0.80;;;;;;;;;;5040067;28;20140;-71
2024/02/25 14:42:53;;;;;;;4.07;1.15;;;;;;;;;;5038944;28;20060;-70
2024/02/25 14:50:15;;;;;;;1.38;0.80;;;;;;;;;;4899314;28;20049;-72
2024/02/25 14:52:44;;;;;;;1.55;0.73;;;;;;;;;;5038376;28;20071;-70
2024/02/25 14:55:17;;;;;;;;;;;;;;;;;;5015619;28;20053;-71
2024/02/25 14:57:48;;;;;;;2.72;1.10;;;;;;;;;;5042852;28;20034;-69
2024/02/25 15:00:18;;;;;;;5.95;0.82;;;;;;;;;;5037120;28;20064;-68
2024/02/25 15:02:46;;;;;;;1.85;0.88;;;;;;;;;;5040571;28;20099;-70
2024/02/25 15:05:16;;;;;;;1.75;0.73;;;;;;;;;;4969556;28;20046;-70